Time;durP1;ratioP1;P1;durP2;ratioP2;P2;SDS_P1;SDS_P2;PMS_P1;PMS_P2;Temp;Humidity;BMP_temperature;BMP_pressure;BME280_temperature;BME280_humidity;BME280_pressure;Samples;Min_cycle;Max_cycle;Signal;HPM_P1;HPM_P2
2022/06/08 09:10:21;;;;;;;;;;;25.40;48.30;;;;;;4909286;29;19985;-76
2022/06/08 09:12:48;;;;;;;;;;;25.60;49.50;;;;;;4902632;29;20364;-78
2022/06/08 09:15:16;;;;;;;;;;;25.80;50.20;;;;;;4900437;29;20328;-83
2022/06/08 09:17:52;;;;;;;;;;;25.80;50.40;;;;;;4900674;29;19951;-82
2022/06/08 09:20:31;;;;;;;;;;;25.90;52.00;;;;;;4885182;29;19931;-81
2022/06/08 09:23:01;;;;;;;;;;;26.00;50.80;;;;;;4891678;29;19932;-77
2022/06/08 09:25:31;;;;;;;;;;;26.10;50.00;;;;;;4901305;29;19927;-79
2022/06/08 09:27:58;;;;;;;;;;;26.10;49.90;;;;;;4890775;29;20437;-78
2022/06/08 09:30:45;;;;;;;;;;;26.10;50.90;;;;;;4908166;29;19934;-80
2022/06/08 09:33:11;;;;;;;;;;;26.20;49.90;;;;;;4900944;29;20281;-80
2022/06/08 09:35:49;;;;;;;;;;;26.20;49.80;;;;;;4911605;29;19928;-80
2022/06/08 09:38:16;;;;;;;;;;;26.20;50.60;;;;;;4900922;29;19927;-80
2022/06/08 09:40:56;;;;;;;;;;;26.20;49.30;;;;;;4900838;29;19967;-76
2022/06/08 09:43:36;;;;;;;;;;;26.10;49.30;;;;;;4884613;29;19934;-80
2022/06/08 09:46:02;;;;;;;;;;;26.00;49.60;;;;;;4914925;29;19927;-82
2022/06/08 09:51:43;;;;;;;;;;;26.00;50.60;;;;;;4912118;29;19931;-80
2022/06/08 09:54:48;;;;;;;;;;;26.10;50.40;;;;;;4916500;29;20002;-79
2022/06/08 09:57:21;;;;;;;;;;;26.20;50.80;;;;;;4887379;29;19951;-80
2022/06/08 10:00:09;;;;;;;;;;;26.40;49.90;;;;;;4881842;29;19932;-77
2022/06/08 10:02:41;;;;;;;;;;;26.40;50.10;;;;;;4881419;29;19928;-80
2022/06/08 10:05:19;;;;;;;;;;;26.50;47.80;;;;;;4915447;29;19927;-77
2022/06/08 10:07:58;;;;;;;;;;;26.40;49.50;;;;;;4914305;29;20380;-80
2022/06/08 10:10:34;;;;;;;;;;;26.40;48.70;;;;;;4915132;29;20353;-82
2022/06/08 10:13:05;;;;;;;;;;;26.30;48.90;;;;;;4900269;29;19977;-82
2022/06/08 10:15:35;;;;;;;;;;;26.20;49.60;;;;;;4904490;29;20427;-77
2022/06/08 10:18:21;;;;;;;;;;;26.20;49.60;;;;;;4915858;29;19927;-80
2022/06/08 10:20:54;;;;;;;;;;;26.10;49.10;;;;;;4912845;29;19932;-79
2022/06/08 10:23:25;;;;;;;;;;;26.00;50.10;;;;;;4917622;29;19991;-80
2022/06/08 10:25:55;;;;;;;;;;;26.10;49.90;;;;;;4899364;29;19931;-80
2022/06/08 10:28:25;;;;;;;;;;;26.20;49.60;;;;;;4902645;29;19928;-80
2022/06/08 10:31:10;;;;;;;;;;;26.30;49.40;;;;;;4914389;29;19928;-80
2022/06/08 10:33:45;;;;;;;;;;;26.30;49.20;;;;;;4914812;29;20317;-78
2022/06/08 10:36:13;;;;;;;;;;;26.30;50.10;;;;;;4899366;29;20010;-80
2022/06/08 10:38:44;;;;;;;;;;;26.30;49.20;;;;;;4904559;29;19983;-80
2022/06/08 10:44:05;;;;;;;;;;;26.50;49.00;;;;;;4911788;29;19935;-80
2022/06/08 10:46:45;;;;;;;;;;;26.70;48.60;;;;;;4916105;29;19927;-79
2022/06/08 10:49:30;;;;;;;;;;;26.80;48.30;;;;;;4904936;29;19984;-82
2022/06/08 10:52:12;;;;;;;;;;;26.80;47.50;;;;;;4926400;29;19932;-80
2022/06/08 10:54:56;;;;;;;;;;;26.70;46.50;;;;;;4916021;29;19927;-80
2022/06/08 10:57:29;;;;;;;;;;;26.50;47.30;;;;;;4923360;29;20006;-81
2022/06/08 11:00:15;;;;;;;;;;;26.40;48.30;;;;;;4914427;29;19955;-82
2022/06/08 11:02:43;;;;;;;;;;;26.30;48.40;;;;;;4941609;23;19997;-80
2022/06/08 11:05:19;;;;;;;;;;;26.20;48.80;;;;;;4936561;29;19926;-80
2022/06/08 11:07:58;;;;;;;;;;;26.10;47.20;;;;;;4936240;29;19973;-80
2022/06/08 11:10:51;;;;;;;;;;;26.10;48.00;;;;;;4946077;23;19978;-78
2022/06/08 11:13:22;;;;;;;;;;;26.20;48.10;;;;;;4926485;29;19926;-79
2022/06/08 11:15:52;;;;;;;;;;;26.10;48.10;;;;;;4945153;23;20414;-79
2022/06/08 11:18:21;;;;;;;;;;;26.20;48.20;;;;;;4959342;28;19934;-80
2022/06/08 11:20:54;;;;;;;;;;;26.10;47.90;;;;;;4933317;29;19930;-78
2022/06/08 11:23:24;;;;;;;;;;;26.10;49.50;;;;;;4932513;29;20276;-80
2022/06/08 11:26:10;;;;;;;;;;;26.20;49.60;;;;;;4943511;28;19938;-82
2022/06/08 11:28:43;;;;;;;;;;;26.30;49.10;;;;;;4934869;28;19970;-78
2022/06/08 11:31:11;;;;;;;;;;;26.30;48.60;;;;;;4954460;28;19933;-80
2022/06/08 11:34:02;;;;;;;;;;;26.40;48.40;;;;;;4953487;23;19921;-78
2022/06/08 11:36:41;;;;;;;;;;;26.40;48.60;;;;;;4952414;28;20405;-80
2022/06/08 11:39:26;;;;;;;;;;;26.30;49.50;;;;;;4957682;28;20417;-80
2022/06/08 11:42:01;;;;;;;;;;;26.30;49.50;;;;;;4971021;28;19930;-80
2022/06/08 11:44:33;;;;;;;;;;;26.40;49.90;;;;;;4974687;28;19926;-77
2022/06/08 11:47:03;;;;;;;;;;;26.60;50.10;;;;;;4953997;28;20351;-79
2022/06/08 11:49:30;;;;;;;;;;;26.70;49.70;;;;;;4972333;28;20387;-78
2022/06/08 11:51:57;;;;;;;;;;;26.80;49.10;;;;;;4971962;28;20330;-79
2022/06/08 11:54:25;;;;;;;;;;;26.90;50.10;;;;;;4955541;28;20386;-81
2022/06/08 11:57:12;;;;;;;;;;;27.00;49.20;;;;;;4957244;28;20343;-81
2022/06/08 11:59:41;;;;;;;;;;;27.10;48.40;;;;;;4954783;28;19926;-80
2022/06/08 12:02:34;;;;;;;;;;;27.20;47.10;;;;;;4957295;28;19976;-80
2022/06/08 12:05:02;;;;;;;;;;;27.30;47.20;;;;;;4924852;29;19930;-80
2022/06/08 12:07:39;;;;;;;;;;;27.20;44.70;;;;;;4964484;28;19927;-79
2022/06/08 12:10:06;;;;;;;;;;;27.10;45.10;;;;;;4949099;29;19930;-79
2022/06/08 12:12:34;;;;;;;;;;;27.00;44.50;;;;;;4947492;29;19927;-80
2022/06/08 12:15:19;;;;;;;;;;;27.00;45.30;;;;;;4929299;29;19928;-80
2022/06/08 12:17:46;;;;;;;;;;;27.00;45.60;;;;;;4951543;29;20005;-81
2022/06/08 12:20:45;;;;;;;;;;;26.90;46.90;;;;;;4947849;29;20378;-81
2022/06/08 12:23:12;;;;;;;;;;;27.00;47.30;;;;;;4893912;29;19927;-81
2022/06/08 12:25:39;;;;;;;;;;;27.20;46.80;;;;;;4937913;29;19978;-79
2022/06/08 12:28:06;;;;;;;;;;;27.40;46.20;;;;;;4956136;29;20005;-80
2022/06/08 12:30:34;;;;;;;;;;;27.60;45.80;;;;;;4953893;28;19977;-80
2022/06/08 12:33:20;;;;;;;;;;;27.60;44.00;;;;;;4953005;29;20002;-78
2022/06/08 12:35:56;;;;;;;;;;;27.60;43.50;;;;;;4930455;28;19926;-79
2022/06/08 12:38:25;;;;;;;;;;;27.50;44.90;;;;;;4948271;29;19938;-81
2022/06/08 12:41:09;;;;;;;;;;;27.50;45.50;;;;;;4941228;29;19982;-80
2022/06/08 12:43:36;;;;;;;;;;;27.50;45.30;;;;;;4950521;29;19937;-81
2022/06/08 12:46:13;;;;;;;;;;;27.50;44.00;;;;;;4958818;28;19927;-79
2022/06/08 12:48:48;;;;;;;;;;;27.40;43.70;;;;;;4943040;29;20310;-79
2022/06/08 12:51:29;;;;;;;;;;;27.30;43.10;;;;;;4956556;29;19982;-79
2022/06/08 12:53:57;;;;;;;;;;;27.20;43.20;;;;;;4957090;29;19934;-81
2022/06/08 12:56:24;;;;;;;;;;;27.10;41.80;;;;;;4956910;28;19934;-79
2022/06/08 12:58:51;;;;;;;;;;;26.90;40.30;;;;;;4956607;29;20441;-79
2022/06/08 13:01:22;;;;;;;;;;;26.80;41.20;;;;;;4956860;29;20375;-81
2022/06/08 13:03:49;;;;;;;;;;;26.60;41.20;;;;;;4951056;29;19982;-80
2022/06/08 13:06:16;;;;;;;;;;;26.40;41.60;;;;;;4957220;28;19973;-79
2022/06/08 13:08:43;;;;;;;;;;;26.30;42.50;;;;;;4965122;28;19927;-78
2022/06/08 13:11:16;;;;;;;;;;;26.30;43.30;;;;;;4956586;29;19934;-81
2022/06/08 13:13:44;;;;;;;;;;;26.10;43.30;;;;;;4961391;28;19932;-81
2022/06/08 13:16:13;;;;;;;;;;;26.00;43.40;;;;;;4942015;29;19931;-81
2022/06/08 13:18:40;;;;;;;;;;;25.90;44.60;;;;;;4935937;28;20446;-79
2022/06/08 13:21:09;;;;;;;;;;;25.90;44.80;;;;;;4969747;28;19927;-80
2022/06/08 13:23:36;;;;;;;;;;;25.80;45.30;;;;;;4958668;28;19956;-79
2022/06/08 13:26:03;;;;;;;;;;;25.80;45.40;;;;;;4968178;28;20295;-79
2022/06/08 13:28:31;;;;;;;;;;;25.70;45.60;;;;;;4941430;29;20338;-80
2022/06/08 13:31:00;;;;;;;;;;;25.60;45.70;;;;;;4945523;29;20387;-79
2022/06/08 13:36:15;;;;;;;;;;;25.60;47.40;;;;;;4958164;28;19969;-81
2022/06/08 13:38:45;;;;;;;;;;;25.50;50.00;;;;;;4964955;28;20371;-81
2022/06/08 13:41:12;;;;;;;;;;;25.40;53.00;;;;;;4946809;28;19976;-81
2022/06/08 13:43:39;;;;;;;;;;;25.20;53.40;;;;;;4964672;28;19978;-81
2022/06/08 13:46:08;;;;;;;;;;;25.00;54.50;;;;;;4953873;29;20394;-81
2022/06/08 13:48:35;;;;;;;;;;;24.80;56.30;;;;;;4946607;29;20360;-80
2022/06/08 13:51:02;;;;;;;;;;;24.60;58.80;;;;;;4944080;29;19977;-82
2022/06/08 13:53:30;;;;;;;;;;;24.40;61.10;;;;;;4948032;29;19927;-82
2022/06/08 13:55:58;;;;;;;;;;;24.10;62.90;;;;;;4946512;29;20375;-81
2022/06/08 13:58:25;;;;;;;;;;;23.70;64.30;;;;;;4952307;29;19978;-83
2022/06/08 14:00:56;;;;;;;;;;;23.40;65.90;;;;;;4948993;29;19931;-83
2022/06/08 14:03:29;;;;;;;;;;;23.10;68.10;;;;;;4954047;28;19930;-82
2022/06/08 14:14:16;;;;;;;;;;;22.50;73.50;;;;;;4961963;28;19974;-82
2022/06/08 14:16:46;;;;;;;;;;;22.50;74.10;;;;;;4941179;28;19965;-79
2022/06/08 14:19:18;;;;;;;;;;;22.40;74.80;;;;;;4963563;23;19926;-82
2022/06/08 14:21:45;;;;;;;;;;;22.30;75.00;;;;;;4968547;28;19934;-81
2022/06/08 14:24:27;;;;;;;;;;;22.30;75.50;;;;;;4954314;28;19962;-83
2022/06/08 14:26:53;;;;;;;;;;;22.40;75.50;;;;;;4959080;28;19927;-83
2022/06/08 14:29:22;;;;;;;;;;;22.50;76.20;;;;;;4962632;28;19984;-85
2022/06/08 14:31:49;;;;;;;;;;;22.50;75.90;;;;;;4956251;28;19996;-83
2022/06/08 14:34:25;;;;;;;;;;;22.60;75.30;;;;;;4952230;28;19930;-80
2022/06/08 14:36:53;;;;;;;;;;;22.70;75.10;;;;;;4964544;23;19958;-81
2022/06/08 14:39:26;;;;;;;;;;;22.90;75.50;;;;;;4966689;28;19993;-82
2022/06/08 14:41:53;;;;;;;;;;;23.00;75.40;;;;;;4946259;28;19977;-81
2022/06/08 14:44:20;;;;;;;;;;;23.10;74.30;;;;;;4961686;28;19958;-82
2022/06/08 14:46:52;;;;;;;;;;;23.20;73.50;;;;;;4933928;23;19931;-79
2022/06/08 14:49:21;;;;;;;;;;;23.30;72.60;;;;;;4941892;29;19930;-84
2022/06/08 14:51:48;;;;;;;;;;;23.40;72.50;;;;;;4924719;29;19927;-79
2022/06/08 14:54:17;;;;;;;;;;;23.50;73.60;;;;;;4922295;29;19954;-80
2022/06/08 14:57:05;;;;;;;;;;;23.60;73.20;;;;;;4924593;29;19974;-82
2022/06/08 14:59:34;;;;;;;;;;;23.70;72.90;;;;;;4932847;29;19931;-82
2022/06/08 15:02:08;;;;;;;;;;;23.90;72.10;;;;;;4919950;29;19934;-79
2022/06/08 15:04:35;;;;;;;;;;;23.90;70.40;;;;;;4936655;29;20009;-81
2022/06/08 15:07:05;;;;;;;;;;;24.00;69.80;;;;;;4928249;29;19933;-80
2022/06/08 15:09:32;;;;;;;;;;;24.10;68.90;;;;;;4929204;29;19941;-81
2022/06/08 15:12:00;;;;;;;;;;;24.10;67.40;;;;;;4926862;29;20391;-78
2022/06/08 15:14:41;;;;;;;;;;;24.10;66.60;;;;;;4937259;23;20012;-81
2022/06/08 15:17:28;;;;;;;;;;;24.20;66.30;;;;;;4928817;29;19981;-82
2022/06/08 15:19:56;;;;;;;;;;;24.30;66.50;;;;;;4945768;29;20339;-82
2022/06/08 15:22:25;;;;;;;;;;;24.40;68.60;;;;;;4939789;29;19927;-81
2022/06/08 15:24:52;;;;;;;;;;;24.60;68.10;;;;;;4937522;28;19937;-80
2022/06/08 15:27:29;;;;;;;;;;;24.60;67.50;;;;;;4950313;28;19930;-77
2022/06/08 15:29:57;;;;;;;;;;;24.70;66.70;;;;;;4932536;29;19927;-79
2022/06/08 15:32:25;;;;;;;;;;;24.90;66.30;;;;;;4959631;28;20113;-77
2022/06/08 15:34:53;;;;;;;;;;;25.20;64.70;;;;;;4938616;28;20021;-82
2022/06/08 15:37:25;;;;;;;;;;;25.60;64.30;;;;;;4939814;29;19926;-80
2022/06/08 15:39:52;;;;;;;;;;;26.10;62.60;;;;;;4956823;28;19930;-80
2022/06/08 15:42:20;;;;;;;;;;;26.60;59.40;;;;;;4941607;29;19933;-81
2022/06/08 15:44:47;;;;;;;;;;;27.00;58.70;;;;;;4942265;28;19926;-81
2022/06/08 15:47:16;;;;;;;;;;;27.20;57.90;;;;;;4937534;29;19930;-80
2022/06/08 15:49:44;;;;;;;;;;;27.40;56.80;;;;;;4948384;28;20356;-80
2022/06/08 15:52:20;;;;;;;;;;;27.70;55.80;;;;;;4940596;29;19931;-79
2022/06/08 15:54:51;;;;;;;;;;;28.00;54.10;;;;;;4942068;28;19927;-82
2022/06/08 15:57:19;;;;;;;;;;;28.30;53.00;;;;;;4942086;29;19973;-81
2022/06/08 15:59:52;;;;;;;;;;;28.60;49.90;;;;;;4939463;28;20302;-81
2022/06/08 16:02:19;;;;;;;;;;;28.70;49.20;;;;;;4945734;29;19927;-80
2022/06/08 16:04:46;;;;;;;;;;;28.70;49.70;;;;;;4938841;28;20024;-78
2022/06/08 16:07:13;;;;;;;;;;;28.90;49.90;;;;;;4954040;28;20013;-81
2022/06/08 16:09:40;;;;;;;;;;;29.00;48.80;;;;;;4953158;28;19927;-80
2022/06/08 16:12:08;;;;;;;;;;;29.10;48.60;;;;;;4933679;29;19994;-78
2022/06/08 16:14:35;;;;;;;;;;;29.20;47.50;;;;;;4930598;29;19934;-82
2022/06/08 16:17:02;;;;;;;;;;;29.20;47.20;;;;;;4949685;29;19927;-80
2022/06/08 16:19:29;;;;;;;;;;;29.00;47.20;;;;;;4938654;29;19933;-82
2022/06/08 16:21:56;;;;;;;;;;;28.90;46.40;;;;;;4937931;29;20013;-82
2022/06/08 16:24:23;;;;;;;;;;;28.80;46.60;;;;;;4940864;29;19926;-82
2022/06/08 16:26:51;;;;;;;;;;;28.70;45.80;;;;;;4936653;29;20402;-79
2022/06/08 16:29:18;;;;;;;;;;;28.70;45.00;;;;;;4937888;29;19934;-80
2022/06/08 16:31:45;;;;;;;;;;;28.60;46.20;;;;;;4946717;29;19927;-80
2022/06/08 16:34:12;;;;;;;;;;;28.50;45.80;;;;;;4942755;29;20276;-78
2022/06/08 16:36:40;;;;;;;;;;;28.30;47.00;;;;;;4934367;29;19926;-80
2022/06/08 16:39:06;;;;;;;;;;;28.10;47.20;;;;;;4948119;29;20323;-79
2022/06/08 16:41:33;;;;;;;;;;;27.90;47.80;;;;;;4937637;29;19927;-79
2022/06/08 16:44:00;;;;;;;;;;;27.70;48.40;;;;;;4936750;29;19937;-80
2022/06/08 16:46:27;;;;;;;;;;;27.60;49.30;;;;;;4952375;28;19927;-81
2022/06/08 16:48:54;;;;;;;;;;;27.50;49.90;;;;;;4938440;29;20287;-81
2022/06/08 16:51:22;;;;;;;;;;;27.60;50.30;;;;;;4942969;29;19973;-80
2022/06/08 16:53:49;;;;;;;;;;;27.70;50.70;;;;;;4935243;29;19926;-79
2022/06/08 16:56:16;;;;;;;;;;;27.90;51.90;;;;;;4939525;29;19930;-79
2022/06/08 17:01:29;;;;;;;;;;;28.30;50.50;;;;;;4950649;29;19926;-79
2022/06/08 17:03:56;;;;;;;;;;;28.40;49.00;;;;;;4936469;29;19976;-79
2022/06/08 17:06:24;;;;;;;;;;;28.60;49.00;;;;;;4934365;29;19948;-79
2022/06/08 17:08:52;;;;;;;;;;;28.70;49.50;;;;;;4936306;29;20269;-79
2022/06/08 17:11:37;;;;;;;;;;;28.90;48.40;;;;;;4952660;28;19950;-82
2022/06/08 17:14:05;;;;;;;6.32;1.48;;;29.00;48.20;;;;;;4932093;29;19940;-80
2022/06/08 17:16:32;;;;;;;3.70;1.83;;;29.00;47.80;;;;;;4924843;29;20134;-81
2022/06/08 17:18:59;;;;;;;1.80;1.10;;;28.90;47.80;;;;;;4932432;29;20385;-81
2022/06/08 17:21:26;;;;;;;;;;;28.80;47.80;;;;;;4925970;29;20052;-79
2022/06/08 17:23:53;;;;;;;;;;;28.50;48.00;;;;;;4940714;29;20430;-78
2022/06/08 17:26:20;;;;;;;;;;;28.30;48.50;;;;;;4933354;29;19927;-78
2022/06/08 17:28:47;;;;;;;;;;;28.00;49.00;;;;;;4949443;28;19926;-79
2022/06/08 17:31:15;;;;;;;;;;;27.80;49.50;;;;;;4945745;28;20348;-81
2022/06/08 17:33:42;;;;;;;;;;;27.70;50.30;;;;;;4952014;29;19962;-78
2022/06/08 17:36:09;;;;;;;;;;;27.50;52.00;;;;;;4938142;29;19922;-79
2022/06/08 17:38:36;;;;;;;;;;;27.20;52.90;;;;;;4942483;29;19923;-81
2022/06/08 17:41:03;;;;;;;;;;;27.00;54.10;;;;;;4958746;28;20014;-82
2022/06/08 17:43:30;;;;;;;;;;;26.80;55.00;;;;;;4938946;29;19929;-82
2022/06/08 17:45:57;;;;;;;;;;;26.70;55.90;;;;;;4956443;28;19927;-78
2022/06/08 17:48:24;;;;;;;;;;;26.40;56.30;;;;;;4941419;29;19930;-81
2022/06/08 17:50:51;;;;;;;;;;;26.30;56.60;;;;;;4940594;28;19922;-80
2022/06/08 17:53:18;;;;;;;;;;;26.20;57.10;;;;;;4951608;29;19929;-81
2022/06/08 17:55:45;;;;;;;;;;;26.00;57.10;;;;;;4946016;28;19930;-81
2022/06/08 17:58:12;;;;;;;;;;;25.90;57.30;;;;;;4941065;29;19933;-78
2022/06/08 18:00:39;;;;;;;;;;;25.80;57.50;;;;;;4945103;23;19926;-81
2022/06/08 18:03:06;;;;;;;;;;;25.70;57.60;;;;;;4933021;29;19929;-79
2022/06/08 18:05:33;;;;;;;;;;;25.50;57.70;;;;;;4922337;29;20287;-79
2022/06/08 18:08:01;;;;;;;;;;;25.40;58.30;;;;;;4927948;29;19922;-82
2022/06/08 18:10:29;;;;;;;;;;;25.30;59.00;;;;;;4931611;29;20018;-78
2022/06/08 18:12:56;;;;;;;;;;;25.10;59.20;;;;;;4923290;29;20046;-79
2022/06/08 18:15:24;;;;;;;;;;;24.90;59.60;;;;;;4920525;29;19926;-78
2022/06/08 18:17:53;;;;;;;;;;;24.80;59.80;;;;;;4930067;29;20290;-78
2022/06/08 18:20:24;;;;;;;;;;;24.60;60.20;;;;;;4919360;29;19953;-78
2022/06/08 18:22:53;;;;;;;;;;;24.50;60.30;;;;;;4921098;29;19931;-82
2022/06/08 18:25:19;;;;;;;;;;;24.40;60.70;;;;;;4937453;29;19977;-79
2022/06/08 18:27:49;;;;;;;;;;;24.30;61.30;;;;;;4931772;29;20018;-84
2022/06/08 18:30:18;;;;;;;;;;;24.20;61.50;;;;;;4915847;29;19929;-78
2022/06/08 18:32:45;;;;;;;;;;;24.10;61.50;;;;;;4913737;29;20294;-81
2022/06/08 18:35:13;;;;;;;;;;;24.00;62.00;;;;;;4916259;29;19929;-83
2022/06/08 18:37:40;;;;;;;;;;;23.80;63.50;;;;;;4908251;29;19923;-80
2022/06/08 18:40:08;;;;;;;;;;;23.80;63.00;;;;;;4906815;29;19923;-79
2022/06/08 18:42:37;;;;;;;;;;;23.70;63.60;;;;;;4913434;29;20268;-81
2022/06/08 18:45:04;;;;;;;;;;;23.50;63.60;;;;;;4920392;29;19927;-82
2022/06/08 18:47:32;;;;;;;;;;;23.40;63.90;;;;;;4911409;29;19937;-80
2022/06/08 18:49:59;;;;;;;;;;;23.30;64.20;;;;;;4903144;29;19970;-82
2022/06/08 18:52:28;;;;;;;;;;;23.20;65.00;;;;;;4913244;29;20341;-81
2022/06/08 18:54:55;;;;;;;;;;;23.00;65.60;;;;;;4924564;29;19946;-82
2022/06/08 18:57:22;;;;;;;;;;;22.90;65.80;;;;;;4910347;29;19923;-79
2022/06/08 18:59:49;;;;;;;;;;;22.80;66.20;;;;;;4916730;29;20364;-83
2022/06/08 19:02:16;;;;;;;;;;;22.70;66.40;;;;;;4912004;29;19974;-78
2022/06/08 19:04:43;;;;;;;;;;;22.60;66.80;;;;;;4914196;29;20033;-81
2022/06/08 19:07:11;;;;;;;;;;;22.50;68.30;;;;;;4911681;29;20287;-81
2022/06/08 19:09:37;;;;;;;;;;;22.40;68.90;;;;;;4912147;29;20437;-81
2022/06/08 19:12:05;;;;;;;;;;;22.30;69.60;;;;;;4910720;29;19943;-78
2022/06/08 19:14:35;;;;;;;;;;;22.20;70.60;;;;;;4911790;29;19958;-82
2022/06/08 19:17:03;;;;;;;;;;;22.10;70.90;;;;;;4906845;29;20010;-79
2022/06/08 19:22:15;;;;;;;;;;;21.90;71.70;;;;;;4922087;29;19930;-82
2022/06/08 19:24:42;;;;;;;;;;;21.80;72.00;;;;;;4907882;29;19933;-82
2022/06/08 19:27:09;;;;;;;;;;;21.70;72.20;;;;;;4904532;29;19931;-81
2022/06/08 19:29:36;;;;;;;;;;;21.60;72.50;;;;;;4905643;29;19930;-80
2022/06/08 19:32:03;;;;;;;;;;;21.60;72.50;;;;;;4910294;29;20014;-79
2022/06/08 19:34:30;;;;;;;;;;;21.60;72.70;;;;;;4911658;29;19930;-80
2022/06/08 19:36:57;;;;;;;;;;;21.50;73.10;;;;;;4905058;29;19923;-80
2022/06/08 19:39:24;;;;;;;;;;;21.40;73.40;;;;;;4908577;29;19961;-85
2022/06/08 19:41:52;;;;;;;;;;;21.40;73.30;;;;;;4909625;29;19972;-82
2022/06/08 19:44:26;;;;;;;;;;;21.30;74.70;;;;;;4911667;29;20365;-82
2022/06/08 19:46:54;;;;;;;;;;;21.20;74.50;;;;;;4905758;29;20025;-79
2022/06/08 19:49:21;;;;;;;;;;;21.10;74.90;;;;;;4911950;29;19930;-83
2022/06/08 19:51:48;;;;;;;;;;;21.00;75.00;;;;;;4913064;29;19959;-85
2022/06/08 19:54:14;;;;;;;;;;;20.90;75.20;;;;;;4922483;29;19961;-85
2022/06/08 19:56:43;;;;;;;;;;;20.80;75.80;;;;;;4915772;29;20323;-80
2022/06/08 19:59:10;;;;;;;;;;;20.70;75.30;;;;;;4912865;29;20006;-80
2022/06/08 20:01:37;;;;;;;;;;;20.60;75.20;;;;;;4930298;29;19922;-80
2022/06/08 20:04:05;;;;;;;;;;;20.60;75.30;;;;;;4935377;29;19926;-80
2022/06/08 20:06:52;;;;;;;;;;;20.60;75.40;;;;;;4912857;29;19927;-79
2022/06/08 20:09:19;;;;;;;;;;;20.50;76.00;;;;;;4919358;29;19931;-82
2022/06/08 20:11:45;;;;;;;;;;;20.50;76.50;;;;;;4919817;29;19961;-80
2022/06/08 20:14:13;;;;;;;;;;;20.50;77.60;;;;;;4906271;29;19982;-84
2022/06/08 20:16:40;;;;;;;;;;;20.40;78.70;;;;;;4909581;29;19923;-80
2022/06/08 20:19:08;;;;;;;;;;;20.20;79.50;;;;;;4918085;29;19922;-79
2022/06/08 20:21:35;;;;;;;;;;;20.20;79.10;;;;;;4920105;29;19929;-84
2022/06/08 20:24:03;;;;;;;;;;;20.20;78.60;;;;;;4907523;29;20426;-81
2022/06/08 20:26:33;;;;;;;;;;;20.20;78.60;;;;;;4908175;29;19990;-81
2022/06/08 20:29:00;;;;;;;;;;;20.20;78.60;;;;;;4920561;29;19974;-79
2022/06/08 20:31:26;;;;;;;;;;;20.10;78.60;;;;;;4922540;29;20006;-79
2022/06/08 20:33:53;;;;;;;;;;;20.10;79.20;;;;;;4916162;29;20422;-86
2022/06/08 20:36:20;;;;;;;;;;;20.10;80.10;;;;;;4915566;29;19923;-79
2022/06/08 20:38:47;;;;;;;;;;;20.00;80.40;;;;;;4910591;29;19923;-81
2022/06/08 20:41:14;;;;;;;;;;;20.00;79.70;;;;;;4919321;29;19998;-83
2022/06/08 20:43:41;;;;;;;;;;;20.00;79.30;;;;;;4910129;29;19933;-85
2022/06/08 20:46:10;;;;;;;;;;;20.00;78.90;;;;;;4915603;29;19927;-80
2022/06/08 20:48:37;;;;;;;;;;;20.00;78.70;;;;;;4931059;29;19955;-84
2022/06/08 20:51:04;;;;;;;;;;;20.00;78.50;;;;;;4911009;29;19923;-78
2022/06/08 20:53:33;;;;;;;;;;;20.00;78.10;;;;;;4919059;29;19973;-81
2022/06/08 20:56:01;;;;;;;;;;;20.00;77.90;;;;;;4919754;29;19977;-83
2022/06/08 20:58:28;;;;;;;;;;;20.00;77.70;;;;;;4913411;29;19935;-80
2022/06/08 21:00:55;;;;;;;;;;;19.90;77.70;;;;;;4909377;29;19929;-82
2022/06/08 21:03:24;;;;;;;;;;;19.90;78.50;;;;;;4939848;29;19958;-80
2022/06/08 21:05:51;;;;;;;;;;;19.90;79.90;;;;;;4920174;29;20332;-83
2022/06/08 21:08:18;;;;;;;;;;;19.80;79.50;;;;;;4920995;29;19923;-79
2022/06/08 21:10:45;;;;;;;;;;;19.70;79.10;;;;;;4930984;29;19970;-79
2022/06/08 21:13:15;;;;;;;;;;;19.70;79.10;;;;;;4919033;29;19926;-84
2022/06/08 21:15:42;;;;;;;;;;;19.70;79.40;;;;;;4935196;29;19927;-81
2022/06/08 21:18:09;;;;;;;;;;;19.70;79.50;;;;;;4912490;29;19923;-82
2022/06/08 21:20:36;;;;;;;;;;;19.70;79.90;;;;;;4916881;29;19922;-81
2022/06/08 21:23:03;;;;;;;;;;;19.70;80.40;;;;;;4908799;29;19923;-82
2022/06/08 21:25:31;;;;;;;;;;;19.60;80.80;;;;;;4914810;29;19930;-80
2022/06/08 21:27:58;;;;;;;;;;;19.60;80.80;;;;;;4927951;29;20013;-80
2022/06/08 21:30:26;;;;;;;;;;;19.60;81.10;;;;;;4919713;29;19923;-79
2022/06/08 21:32:54;;;;;;;;;;;19.50;80.90;;;;;;4939086;29;19923;-85
2022/06/08 21:35:24;;;;;;;;;;;19.50;80.80;;;;;;4919840;29;20013;-83
2022/06/08 21:37:52;;;;;;;;;;;19.50;80.80;;;;;;4932228;29;19998;-84
2022/06/08 21:40:26;;;;;;;;;;;19.40;80.90;;;;;;4917860;29;19923;-84
2022/06/08 21:42:54;;;;;;;;;;;19.40;80.60;;;;;;4912886;29;19927;-82
2022/06/08 21:45:23;;;;;;;;;;;19.40;80.30;;;;;;4927355;29;19929;-84
2022/06/08 21:47:52;;;;;;;;;;;19.40;80.40;;;;;;4914512;29;20348;-82
2022/06/08 21:50:19;;;;;;;;;;;19.30;80.70;;;;;;4912546;29;19933;-82
2022/06/08 21:53:03;;;;;;;;;;;19.30;80.80;;;;;;4925314;29;19962;-79
2022/06/08 21:55:31;;;;;;;;;;;19.20;80.60;;;;;;4931384;29;19974;-83
2022/06/08 21:57:59;;;;;;;;;;;19.20;80.70;;;;;;4921230;29;19933;-80
2022/06/08 22:00:28;;;;;;;;;;;19.20;80.90;;;;;;4917788;29;20276;-84
2022/06/08 22:02:56;;;;;;;;;;;19.20;81.20;;;;;;4921473;29;19923;-82
2022/06/08 22:05:23;;;;;;;;;;;19.20;81.30;;;;;;4921964;29;20017;-85
2022/06/08 22:07:50;;;;;;;;;;;19.20;81.20;;;;;;4919053;29;19950;-84
2022/06/08 22:10:37;;;;;;;;;;;19.10;81.30;;;;;;4919385;29;19930;-84
2022/06/08 22:13:04;;;;;;;;;;;19.10;81.40;;;;;;4920602;29;20039;-82
2022/06/08 22:15:32;;;;;;;;;;;19.10;81.70;;;;;;4921665;29;19966;-83
2022/06/08 22:17:59;;;;;;;;;;;19.10;81.90;;;;;;4921674;29;19923;-81
2022/06/08 22:20:26;;;;;;;;;;;19.00;81.70;;;;;;4920926;29;20364;-82
2022/06/08 22:22:53;;;;;;;;;;;19.00;82.70;;;;;;4917850;29;20354;-81
2022/06/08 22:25:21;;;;;;;;;;;18.90;83.70;;;;;;4918677;29;19930;-82
2022/06/08 22:27:48;;;;;;;;;;;18.80;83.00;;;;;;4912594;29;19923;-82
2022/06/08 22:30:16;;;;;;;;;;;18.80;83.00;;;;;;4909394;29;19927;-83
2022/06/08 22:32:44;;;;;;;;;;;18.80;83.50;;;;;;4928903;29;20418;-78
2022/06/08 22:35:13;;;;;;;;;;;18.70;83.70;;;;;;4915733;29;19927;-82
2022/06/08 22:37:40;;;;;;;;;;;18.70;83.90;;;;;;4906860;29;20345;-81
2022/06/08 22:40:08;;;;;;;;;;;18.60;83.70;;;;;;4918909;29;19923;-83
2022/06/08 22:42:34;;;;;;;;;;;18.60;84.00;;;;;;4923930;29;19945;-80
2022/06/08 22:45:01;;;;;;;;;;;18.50;83.80;;;;;;4913098;29;20567;-83
2022/06/08 22:47:28;;;;;;;;;;;18.50;83.70;;;;;;4917693;29;20119;-84
2022/06/08 22:49:55;;;;;;;;;;;18.50;83.60;;;;;;4926440;29;19923;-84
2022/06/08 22:52:22;;;;;;;;;;;18.50;84.30;;;;;;4910063;29;20427;-80
2022/06/08 22:54:49;;;;;;;;;;;18.40;84.90;;;;;;4906071;29;20351;-82
2022/06/08 22:57:16;;;;;;;;;;;18.40;84.20;;;;;;4902718;29;19923;-81
2022/06/08 22:59:43;;;;;;;;;;;18.40;84.00;;;;;;4905286;29;20298;-84
2022/06/08 23:02:10;;;;;;;;;;;18.30;83.90;;;;;;4925615;29;19923;-82
2022/06/08 23:04:37;;;;;;;;;;;18.40;84.10;;;;;;4917644;29;19927;-84
2022/06/08 23:07:04;;;;;;;;;;;18.30;84.40;;;;;;4938669;29;19927;-82
2022/06/08 23:09:32;;;;;;;;;;;18.30;84.30;;;;;;4919021;29;19923;-84
2022/06/08 23:11:59;;;;;;;;;;;18.20;84.30;;;;;;4923695;29;19926;-79
2022/06/08 23:14:26;;;;;;;;;;;18.20;84.40;;;;;;4911279;29;20354;-82
2022/06/08 23:22:25;;;;;;;;;;;18.10;84.40;;;;;;4930303;29;19933;-80
2022/06/08 23:24:52;;;;;;;;;;;18.00;84.40;;;;;;4916193;29;19978;-82
2022/06/08 23:27:19;;;;;;;;;;;17.90;84.50;;;;;;4905415;29;19923;-80
2022/06/08 23:29:46;;;;;;;;;;;17.80;84.50;;;;;;4934656;29;19986;-84
2022/06/08 23:32:13;;;;;;;;;;;17.80;84.60;;;;;;4918554;29;19927;-80
2022/06/08 23:34:40;;;;;;;;;;;17.80;84.80;;;;;;4911710;29;20010;-79
2022/06/08 23:37:07;;;;;;;;;;;17.70;84.90;;;;;;4924211;29;19927;-84
2022/06/08 23:39:34;;;;;;;;;;;17.60;85.50;;;;;;4921945;29;19923;-84
2022/06/08 23:42:00;;;;;;;;;;;17.50;85.00;;;;;;4927763;29;20043;-85
2022/06/08 23:44:47;;;;;;;;;;;17.50;85.40;;;;;;4922294;29;19930;-83
2022/06/08 23:47:14;;;;;;;;;;;17.50;85.10;;;;;;4926222;29;19923;-85
2022/06/08 23:49:41;;;;;;;;;;;17.50;85.10;;;;;;4918442;29;19929;-81
2022/06/08 23:52:08;;;;;;;;;;;17.40;85.00;;;;;;4904200;29;20013;-82
2022/06/08 23:54:34;;;;;;;;;;;17.40;85.10;;;;;;4920480;29;19922;-85
2022/06/08 23:57:01;;;;;;;;;;;17.40;85.20;;;;;;4918580;29;19926;-85
2022/06/08 23:59:29;;;;;;;;;;;17.40;85.50;;;;;;4921598;29;20376;-84
